Time;durP1;ratioP1;P1;durP2;ratioP2;P2;SDS_P1;SDS_P2;PMS_P1;PMS_P2;Temp;Humidity;BMP_temperature;BMP_pressure;BME280_temperature;BME280_humidity;BME280_pressure;Samples;Min_cycle;Max_cycle;Signal;HPM_P1;HPM_P2
2023/08/31 00:01:34;;;;;;;11.07;7.13;;;17.10;82.20;;;;;;4742711;30;20071;-92
2023/08/31 00:04:01;;;;;;;13.20;6.85;;;17.00;82.10;;;;;;4739671;30;20051;-91
2023/08/31 00:06:29;;;;;;;12.30;7.23;;;17.10;82.10;;;;;;4748994;30;20515;-91
2023/08/31 00:08:56;;;;;;;13.65;7.00;;;17.00;82.00;;;;;;4742950;30;20069;-91
2023/08/31 00:11:25;;;;;;;11.60;7.47;;;17.10;82.20;;;;;;4748768;30;20048;-91
2023/08/31 00:13:53;;;;;;;15.10;7.22;;;17.10;82.30;;;;;;4736369;30;20083;-91
2023/08/31 00:16:25;;;;;;;14.63;7.32;;;17.10;82.20;;;;;;4744940;30;20056;-91
2023/08/31 00:18:54;;;;;;;12.07;6.87;;;17.00;82.20;;;;;;4748538;30;20440;-91
2023/08/31 00:21:22;;;;;;;12.70;6.93;;;17.00;82.00;;;;;;4741650;30;20047;-92
2023/08/31 00:23:49;;;;;;;12.13;7.15;;;17.00;82.10;;;;;;4751001;30;20511;-90
2023/08/31 00:26:16;;;;;;;13.57;7.97;;;17.00;82.30;;;;;;4739593;30;20048;-91
2023/08/31 00:28:46;;;;;;;14.60;8.48;;;17.00;82.20;;;;;;4733766;30;20062;-91
2023/08/31 00:31:13;;;;;;;15.67;8.40;;;17.00;82.30;;;;;;4741824;30;20138;-91
2023/08/31 00:33:40;;;;;;;15.90;8.73;;;17.00;82.40;;;;;;4734887;30;20059;-91
2023/08/31 00:36:07;;;;;;;14.65;8.48;;;17.00;82.60;;;;;;4741660;30;20077;-91
2023/08/31 00:38:35;;;;;;;12.95;7.93;;;17.00;82.60;;;;;;4721834;30;20074;-92
2023/08/31 00:41:02;;;;;;;15.88;8.90;;;17.00;82.70;;;;;;4755042;30;20056;-90
2023/08/31 00:43:29;;;;;;;14.77;8.47;;;17.00;82.50;;;;;;4731040;30;20109;-91
2023/08/31 00:45:58;;;;;;;15.27;8.50;;;16.90;82.60;;;;;;4733910;30;20075;-91
2023/08/31 00:48:26;;;;;;;13.18;8.18;;;16.90;82.60;;;;;;4741104;30;20048;-91
2023/08/31 00:50:53;;;;;;;16.10;8.50;;;16.90;82.70;;;;;;4751914;30;20056;-91
2023/08/31 00:53:23;;;;;;;14.70;9.20;;;16.90;82.40;;;;;;4749537;30;20058;-91
2023/08/31 00:55:50;;;;;;;18.37;9.07;;;16.80;82.60;;;;;;4743128;30;20040;-91
2023/08/31 00:58:17;;;;;;;16.48;8.77;;;16.80;82.70;;;;;;4746381;30;20392;-91
2023/08/31 01:01:13;;;;;;;20.80;9.80;;;16.70;83.10;;;;;;4744714;30;20048;-91
2023/08/31 01:03:49;;;;;;;18.80;9.85;;;16.70;83.00;;;;;;4742506;30;20472;-91
2023/08/31 01:06:16;;;;;;;18.45;9.68;;;16.60;82.80;;;;;;4726400;30;20052;-91
2023/08/31 01:08:57;;;;;;;17.23;9.77;;;16.60;83.00;;;;;;4751649;30;20051;-91
2023/08/31 01:11:36;;;;;;;17.17;8.70;;;16.60;83.00;;;;;;4755310;30;20147;-91
2023/08/31 01:14:18;;;;;;;18.15;10.13;;;16.60;83.10;;;;;;4751302;30;20055;-91
2023/08/31 01:16:49;;;;;;;18.20;9.98;;;16.50;83.20;;;;;;4753883;30;20052;-91
2023/08/31 01:19:44;;;;;;;17.40;9.57;;;16.50;83.30;;;;;;4742018;30;20130;-91
2023/08/31 01:22:22;;;;;;;18.03;10.83;;;16.50;83.40;;;;;;4744812;30;20047;-92
2023/08/31 01:24:50;;;;;;;22.80;10.27;;;16.50;83.50;;;;;;4746423;30;20466;-92
2023/08/31 01:27:18;;;;;;;18.50;10.23;;;16.50;83.50;;;;;;4741814;30;20052;-91
2023/08/31 01:29:45;;;;;;;19.38;10.80;;;16.50;83.70;;;;;;4750803;30;20510;-92
2023/08/31 01:32:13;;;;;;;18.38;11.07;;;16.50;83.60;;;;;;4745907;30;20058;-92
2023/08/31 01:34:40;;;;;;;18.87;10.47;;;16.50;83.60;;;;;;4744465;30;20507;-91
2023/08/31 01:37:29;;;;;;;20.10;10.45;;;16.50;83.50;;;;;;4748573;30;20041;-91
2023/08/31 01:39:59;;;;;;;19.65;10.48;;;16.50;83.10;;;;;;4730728;30;20044;-92
2023/08/31 01:42:28;;;;;;;19.70;10.77;;;16.50;83.10;;;;;;4753425;30;20057;-91
2023/08/31 01:44:57;;;;;;;18.98;9.75;;;16.60;83.00;;;;;;4750021;30;20104;-91
2023/08/31 01:47:25;;;;;;;18.10;9.70;;;16.60;82.80;;;;;;4744687;30;20500;-91
2023/08/31 01:49:53;;;;;;;20.25;10.57;;;16.60;82.90;;;;;;4733435;30;20047;-91
2023/08/31 01:52:20;;;;;;;19.00;10.63;;;16.60;82.90;;;;;;4745680;30;20052;-91
2023/08/31 01:54:47;;;;;;;18.90;10.10;;;16.60;82.90;;;;;;4748373;30;20066;-91
2023/08/31 01:57:14;;;;;;;18.98;10.38;;;16.60;82.70;;;;;;4734181;30;20144;-91
2023/08/31 02:00:01;;;;;;;19.67;10.07;;;16.50;83.00;;;;;;4750281;30;20135;-90
2023/08/31 02:02:40;;;;;;;19.40;9.88;;;16.50;83.10;;;;;;4746200;30;20065;-91
2023/08/31 02:05:08;;;;;;;21.23;10.48;;;16.50;83.00;;;;;;4747742;30;20415;-91
2023/08/31 02:07:36;;;;;;;19.67;9.77;;;16.60;82.70;;;;;;4743237;30;20060;-91
2023/08/31 02:10:06;;;;;;;21.90;10.07;;;16.50;82.80;;;;;;4746183;30;20048;-92
2023/08/31 02:12:36;;;;;;;23.23;10.73;;;16.50;82.80;;;;;;4730695;30;20422;-91
2023/08/31 02:15:06;;;;;;;19.15;9.85;;;16.50;82.90;;;;;;4746829;30;20044;-91
2023/08/31 02:17:35;;;;;;;17.27;9.65;;;16.50;83.10;;;;;;4746350;30;20534;-90
2023/08/31 02:20:04;;;;;;;22.25;11.25;;;16.50;83.30;;;;;;4741829;30;20051;-91
2023/08/31 02:22:34;;;;;;;21.42;10.57;;;16.50;83.40;;;;;;4750276;30;20047;-92
2023/08/31 02:25:01;;;;;;;21.13;10.23;;;16.50;83.60;;;;;;4743425;30;20572;-91
2023/08/31 02:27:28;;;;;;;18.58;9.82;;;16.40;83.70;;;;;;4750959;30;20056;-91
2023/08/31 02:29:55;;;;;;;19.05;10.25;;;16.40;83.70;;;;;;4751030;30;20055;-91
2023/08/31 02:32:23;;;;;;;18.50;9.77;;;16.40;83.80;;;;;;4736168;30;20518;-91
2023/08/31 02:34:50;;;;;;;21.33;10.65;;;16.50;83.80;;;;;;4737333;30;20056;-90
2023/08/31 02:37:17;;;;;;;20.77;10.37;;;16.50;83.80;;;;;;4743871;30;20499;-91
2023/08/31 02:39:44;;;;;;;21.80;11.20;;;16.50;83.80;;;;;;4746567;30;20067;-91
2023/08/31 02:42:11;;;;;;;21.88;10.68;;;16.40;83.90;;;;;;4739486;30;20056;-90
2023/08/31 02:44:38;;;;;;;20.38;10.43;;;16.40;83.80;;;;;;4732605;30;20052;-91
2023/08/31 02:47:05;;;;;;;22.15;11.00;;;16.30;83.90;;;;;;4745629;30;20114;-91
2023/08/31 02:49:32;;;;;;;21.23;10.60;;;16.40;83.90;;;;;;4749581;30;20431;-91
2023/08/31 02:51:59;;;;;;;21.75;10.27;;;16.30;84.00;;;;;;4744288;30;20118;-90
2023/08/31 02:54:26;;;;;;;20.48;10.63;;;16.30;84.20;;;;;;4753710;30;20419;-90
2023/08/31 02:56:53;;;;;;;20.77;10.43;;;16.40;84.30;;;;;;4744535;30;20056;-91
2023/08/31 02:59:20;;;;;;;19.02;9.75;;;16.30;84.20;;;;;;4745735;30;20048;-90
2023/08/31 03:01:49;;;;;;;21.23;10.27;;;16.30;84.30;;;;;;4733029;30;20044;-91
2023/08/31 03:04:17;;;;;;;17.88;9.95;;;16.30;84.20;;;;;;4747488;30;20059;-91
2023/08/31 03:06:45;;;;;;;22.33;10.82;;;16.30;84.30;;;;;;4749374;30;20056;-90
2023/08/31 03:09:13;;;;;;;20.77;10.73;;;16.30;84.20;;;;;;4747245;30;20047;-92
2023/08/31 03:11:40;;;;;;;17.42;10.68;;;16.20;84.10;;;;;;4747353;30;20581;-91
2023/08/31 03:14:09;;;;;;;19.03;11.37;;;16.20;84.20;;;;;;4745789;30;20139;-91
2023/08/31 03:16:37;;;;;;;17.75;10.15;;;16.20;84.10;;;;;;4724653;30;20049;-91
2023/08/31 03:19:13;;;;;;;15.50;8.55;;;16.20;84.20;;;;;;4745275;30;20055;-96
2023/08/31 03:21:43;;;;;;;14.13;7.50;;;16.20;83.90;;;;;;4742381;30;20047;-96
2023/08/31 03:24:20;;;;;;;13.88;6.38;;;16.10;83.80;;;;;;4743311;30;20457;-95
2023/08/31 03:26:47;;;;;;;12.50;6.30;;;16.10;83.70;;;;;;4757301;30;20059;-96
2023/08/31 03:29:15;;;;;;;13.70;6.18;;;16.00;84.00;;;;;;4742952;30;20059;-95
2023/08/31 03:31:42;;;;;;;13.60;6.63;;;16.00;84.20;;;;;;4759301;30;20055;-95
2023/08/31 03:34:10;;;;;;;14.32;8.52;;;16.00;84.40;;;;;;4742876;30;20056;-96
2023/08/31 03:36:40;;;;;;;16.25;8.13;;;16.00;84.50;;;;;;4743598;30;20048;-95
2023/08/31 03:39:09;;;;;;;17.40;11.63;;;16.00;84.50;;;;;;4759006;30;20052;-96
2023/08/31 03:41:37;;;;;;;18.65;10.18;;;16.10;84.40;;;;;;4749614;30;20086;-96
2023/08/31 03:44:08;;;;;;;16.63;9.40;;;16.10;84.50;;;;;;4751800;30;20119;-96
2023/08/31 03:46:37;;;;;;;12.95;7.50;;;16.10;84.60;;;;;;4755289;30;20086;-96
2023/08/31 03:49:09;;;;;;;14.93;6.78;;;16.10;84.30;;;;;;4752153;30;20059;-96
2023/08/31 03:51:39;;;;;;;12.93;6.37;;;16.00;84.70;;;;;;4754533;30;20091;-96
2023/08/31 03:54:09;;;;;;;10.93;5.50;;;16.00;84.70;;;;;;4754970;30;20066;-96
2023/08/31 03:56:37;;;;;;;12.35;4.97;;;16.00;84.70;;;;;;4741493;30;20060;-96
2023/08/31 03:59:06;;;;;;;10.05;5.25;;;16.10;84.60;;;;;;4767723;30;20051;-96
2023/08/31 04:01:38;;;;;;;10.00;4.95;;;16.10;84.40;;;;;;4769266;30;20056;-96
2023/08/31 04:12:43;;;;;;;11.10;3.60;;;16.00;84.30;;;;;;4790794;30;20097;-96
2023/08/31 04:15:34;;;;;;;6.88;3.38;;;16.00;84.70;;;;;;4766881;30;20138;-96
2023/08/31 04:18:07;;;;;;;8.07;3.60;;;16.00;84.60;;;;;;4757590;30;20054;-96
2023/08/31 04:20:39;;;;;;;8.77;3.30;;;16.00;84.20;;;;;;4760357;30;20086;-96
2023/08/31 04:23:07;;;;;;;9.57;3.60;;;16.10;84.10;;;;;;4757202;30;20115;-96
2023/08/31 04:25:53;;;;;;;9.05;3.50;;;16.10;84.30;;;;;;4759035;30;20054;-96
2023/08/31 04:28:26;;;;;;;8.98;3.53;;;16.20;84.20;;;;;;4756679;30;20051;-96
2023/08/31 04:31:01;;;;;;;11.75;3.55;;;16.20;84.20;;;;;;4757165;30;20150;-95
2023/08/31 04:33:47;;;;;;;8.93;3.57;;;16.20;84.40;;;;;;4758350;30;20142;-95
2023/08/31 04:40:22;;;;;;;11.15;4.90;;;16.30;84.40;;;;;;4790756;30;20046;-96
2023/08/31 04:47:50;;;;;;;9.95;4.65;;;16.40;84.40;;;;;;4738110;30;20052;-96
2023/08/31 04:50:18;;;;;;;12.17;4.33;;;16.30;84.00;;;;;;4727968;30;20060;-95
2023/08/31 04:52:49;;;;;;;9.27;4.13;;;16.30;84.10;;;;;;4767884;30;20051;-96
2023/08/31 04:55:25;;;;;;;8.80;3.78;;;16.30;84.10;;;;;;4762503;30;20048;-95
2023/08/31 04:57:57;;;;;;;8.10;3.17;;;16.20;84.40;;;;;;4769049;30;20063;-96
2023/08/31 05:00:26;;;;;;;8.13;3.30;;;16.10;84.30;;;;;;4752034;30;20115;-96
2023/08/31 05:02:55;;;;;;;7.97;2.83;;;16.20;84.40;;;;;;4765672;30;20564;-96
2023/08/31 05:05:23;;;;;;;7.93;3.13;;;16.20;84.30;;;;;;4753040;30;20055;-96
2023/08/31 05:07:51;;;;;;;7.82;3.10;;;16.20;84.30;;;;;;4765844;30;20051;-96
2023/08/31 05:10:21;;;;;;;7.22;2.53;;;16.20;84.30;;;;;;4767155;30;20434;-96
2023/08/31 05:12:49;;;;;;;6.15;2.50;;;16.20;84.20;;;;;;4757706;30;20074;-96
2023/08/31 05:15:17;;;;;;;5.00;1.80;;;16.10;84.10;;;;;;4748583;30;20397;-95
2023/08/31 05:17:45;;;;;;;5.20;2.05;;;16.10;84.10;;;;;;4750153;30;20048;-95
2023/08/31 05:20:16;;;;;;;4.35;1.70;;;16.10;84.00;;;;;;4739092;30;20072;-95
2023/08/31 05:22:44;;;;;;;4.18;1.90;;;16.00;84.10;;;;;;4753181;30;20052;-94
2023/08/31 05:25:14;;;;;;;6.70;2.35;;;16.00;84.30;;;;;;4753158;30;20056;-96
2023/08/31 05:27:53;;;;;;;5.00;2.00;;;16.00;84.50;;;;;;4737813;30;20052;-95
2023/08/31 05:30:25;;;;;;;6.38;2.00;;;16.00;84.60;;;;;;4740623;30;20056;-96
2023/08/31 05:33:22;;;;;;;5.70;2.47;;;16.00;84.80;;;;;;4744026;30;20082;-96
2023/08/31 05:37:22;;;;;;;5.95;2.70;;;16.00;84.70;;;;;;4733088;30;20072;-95
2023/08/31 05:39:54;;;;;;;6.18;2.55;;;16.00;84.60;;;;;;4713638;30;20064;-96
2023/08/31 05:42:26;;;;;;;5.30;2.40;;;16.00;84.60;;;;;;4700925;30;20140;-95
2023/08/31 05:44:59;;;;;;;5.28;2.28;;;16.10;84.80;;;;;;4704320;30;20056;-96
2023/08/31 05:47:31;;;;;;;5.40;2.40;;;16.10;84.80;;;;;;4731224;30;20057;-96
2023/08/31 05:50:05;;;;;;;7.53;2.15;;;16.10;84.80;;;;;;4687754;30;20552;-95
2023/08/31 05:52:38;;;;;;;5.90;2.60;;;16.00;84.70;;;;;;4705145;30;20079;-96
2023/08/31 05:55:08;;;;;;;4.23;1.90;;;16.10;84.80;;;;;;4714430;30;20064;-96
2023/08/31 05:57:37;;;;;;;6.68;2.47;;;16.10;84.70;;;;;;4700989;30;20060;-94
2023/08/31 06:00:07;;;;;;;5.07;2.10;;;16.20;84.70;;;;;;4715360;30;20068;-96
2023/08/31 06:02:45;;;;;;;5.22;1.77;;;16.20;84.80;;;;;;4715717;30;20045;-95
2023/08/31 06:05:13;;;;;;;4.93;2.10;;;16.10;84.60;;;;;;4697990;30;20053;-96
2023/08/31 06:07:40;;;;;;;3.97;1.57;;;16.20;84.30;;;;;;4697717;30;20053;-95
2023/08/31 06:10:14;;;;;;;4.78;1.92;;;16.10;84.30;;;;;;4714095;30;20095;-95
2023/08/31 06:12:42;;;;;;;5.55;2.38;;;16.10;84.50;;;;;;4708077;30;20064;-95
2023/08/31 06:15:15;;;;;;;4.75;1.73;;;16.10;84.60;;;;;;4704473;30;20582;-95
2023/08/31 06:17:56;;;;;;;6.70;2.30;;;16.10;84.70;;;;;;4717016;30;20032;-96
2023/08/31 06:20:29;;;;;;;6.47;2.63;;;16.20;84.50;;;;;;4710421;30;20077;-96
2023/08/31 06:22:57;;;;;;;6.70;3.10;;;16.20;84.80;;;;;;4705007;30;20052;-95
2023/08/31 06:25:24;;;;;;;6.05;2.50;;;16.20;84.70;;;;;;4704965;30;20504;-96
2023/08/31 06:27:54;;;;;;;6.68;2.65;;;16.40;84.70;;;;;;4691961;30;20147;-95
2023/08/31 06:30:21;;;;;;;7.80;2.75;;;16.50;84.20;;;;;;4692330;30;20545;-95
2023/08/31 06:32:51;;;;;;;6.40;3.03;;;16.60;84.10;;;;;;4704602;30;20053;-95
2023/08/31 06:35:25;;;;;;;7.53;3.13;;;16.60;83.60;;;;;;4700055;30;20057;-96
2023/08/31 06:37:55;;;;;;;6.75;3.03;;;16.80;83.70;;;;;;4706749;30;20157;-95
2023/08/31 06:40:25;;;;;;;6.20;2.90;;;16.80;83.30;;;;;;4726579;30;20050;-96
2023/08/31 06:42:52;;;;;;;6.60;2.90;;;16.90;83.20;;;;;;4739484;30;20052;-95
2023/08/31 06:45:20;;;;;;;7.90;2.90;;;17.00;83.10;;;;;;4724568;30;20155;-95
2023/08/31 06:48:06;;;;;;;9.00;2.90;;;17.10;83.20;;;;;;4741351;30;20051;-96
2023/08/31 06:50:35;;;;;;;8.15;3.20;;;17.10;82.80;;;;;;4738307;30;20059;-96
2023/08/31 06:53:05;;;;;;;8.30;3.40;;;17.10;82.70;;;;;;4738692;30;20056;-95
2023/08/31 06:55:33;;;;;;;8.32;3.80;;;17.20;82.50;;;;;;4737943;30;20052;-96
2023/08/31 06:58:05;;;;;;;7.90;3.40;;;17.30;82.70;;;;;;4738388;30;20055;-94
2023/08/31 07:00:33;;;;;;;11.35;4.50;;;17.40;82.70;;;;;;4738880;30;20054;-96
2023/08/31 07:03:00;;;;;;;11.88;6.18;;;17.50;82.20;;;;;;4725416;30;20591;-96
2023/08/31 07:05:29;;;;;;;13.68;6.20;;;17.50;81.90;;;;;;4738155;30;20048;-94
2023/08/31 07:07:57;;;;;;;11.30;5.13;;;17.60;81.30;;;;;;4724539;30;20055;-96
2023/08/31 07:10:24;;;;;;;8.13;3.70;;;17.60;81.80;;;;;;4739040;30;20060;-94
2023/08/31 07:12:52;;;;;;;9.70;3.60;;;17.70;82.00;;;;;;4747533;30;20495;-94
2023/08/31 07:15:19;;;;;;;8.20;3.15;;;17.70;81.50;;;;;;4755272;30;20163;-94
2023/08/31 07:17:46;;;;;;;6.80;3.10;;;17.70;80.40;;;;;;4740619;30;20052;-93
2023/08/31 07:20:13;;;;;;;7.13;2.83;;;17.50;81.00;;;;;;4755366;30;20150;-95
2023/08/31 07:22:40;;;;;;;7.00;3.10;;;17.60;81.10;;;;;;4758061;30;20107;-96
2023/08/31 07:25:08;;;;;;;7.20;2.85;;;17.60;81.20;;;;;;4759104;30;20085;-95
2023/08/31 07:27:39;;;;;;;7.53;2.75;;;17.70;81.00;;;;;;4764677;30;20142;-96
2023/08/31 07:30:06;;;;;;;6.07;2.72;;;17.80;80.70;;;;;;4759875;30;20501;-92
2023/08/31 07:32:34;;;;;;;7.13;3.45;;;17.90;80.90;;;;;;4758605;30;20060;-92
2023/08/31 07:35:02;;;;;;;7.47;2.83;;;18.00;81.20;;;;;;4758688;30;20047;-92
2023/08/31 07:37:29;;;;;;;7.13;3.17;;;18.10;80.70;;;;;;4758290;30;20067;-92
2023/08/31 07:39:56;;;;;;;8.18;3.42;;;18.20;80.30;;;;;;4758164;30;20147;-91
2023/08/31 07:42:23;;;;;;;6.68;3.33;;;18.20;80.50;;;;;;4758223;30;20048;-92
2023/08/31 07:44:50;;;;;;;8.73;4.07;;;18.40;80.10;;;;;;4758045;30;20109;-93
2023/08/31 07:47:17;;;;;;;8.13;3.40;;;18.50;79.30;;;;;;4758481;30;20052;-93
2023/08/31 07:49:44;;;;;;;6.60;3.10;;;18.50;79.10;;;;;;4747829;30;20503;-93
2023/08/31 07:52:11;;;;;;;5.68;2.63;;;18.60;78.60;;;;;;4740337;30;20503;-93
2023/08/31 07:54:38;;;;;;;6.32;3.40;;;18.60;78.00;;;;;;4740668;30;20059;-92
2023/08/31 07:57:05;;;;;;;8.65;3.50;;;18.70;78.20;;;;;;4740133;30;20150;-93
2023/08/31 07:59:33;;;;;;;7.77;4.33;;;18.80;78.10;;;;;;4740238;30;20139;-92
2023/08/31 08:02:00;;;;;;;11.10;4.55;;;19.00;76.90;;;;;;4741502;30;20519;-89
2023/08/31 08:04:28;;;;;;;7.03;3.38;;;19.00;76.50;;;;;;4757632;30;20055;-90
2023/08/31 08:06:55;;;;;;;5.70;2.60;;;19.00;75.50;;;;;;4752296;30;20109;-90
2023/08/31 08:09:22;;;;;;;5.88;2.50;;;19.00;75.60;;;;;;4740328;30;20064;-92
2023/08/31 08:11:50;;;;;;;6.53;2.60;;;19.10;76.70;;;;;;4739923;30;20458;-91
2023/08/31 08:14:17;;;;;;;4.78;2.17;;;19.20;76.50;;;;;;4735248;30;20150;-92
2023/08/31 08:16:44;;;;;;;6.18;2.90;;;19.30;74.40;;;;;;4743225;30;20070;-91
2023/08/31 08:19:11;;;;;;;4.72;2.22;;;19.40;74.60;;;;;;4757831;30;20105;-92
2023/08/31 08:21:38;;;;;;;6.68;2.97;;;19.50;71.70;;;;;;4732237;30;20070;-91
2023/08/31 08:24:06;;;;;;;12.73;3.27;;;19.50;71.30;;;;;;4746063;30;20135;-92
2023/08/31 08:26:33;;;;;;;5.25;2.58;;;19.50;72.50;;;;;;4740391;30;20048;-91
2023/08/31 08:29:00;;;;;;;5.57;3.13;;;19.60;72.90;;;;;;4739932;30;20059;-90
2023/08/31 08:31:27;;;;;;;5.43;2.67;;;19.70;71.10;;;;;;4739686;30;20507;-92
2023/08/31 08:33:54;;;;;;;4.82;2.92;;;19.80;71.80;;;;;;4730540;30;20056;-90
2023/08/31 08:36:21;;;;;;;4.77;2.53;;;19.80;71.10;;;;;;4730352;30;20110;-91
2023/08/31 08:38:48;;;;;;;7.32;2.97;;;19.80;70.40;;;;;;4748679;30;20048;-91
2023/08/31 08:41:19;;;;;;;6.38;3.50;;;19.80;70.10;;;;;;4757293;30;20415;-90
2023/08/31 08:43:48;;;;;;;5.63;3.05;;;19.90;69.20;;;;;;4742922;30;20059;-91
2023/08/31 08:46:15;;;;;;;5.35;2.90;;;19.90;69.90;;;;;;4743920;30;20052;-89
2023/08/31 08:48:44;;;;;;;5.73;3.20;;;19.90;69.90;;;;;;4747609;30;20124;-89
2023/08/31 08:51:11;;;;;;;5.57;3.20;;;19.90;68.20;;;;;;4750741;30;20047;-89
2023/08/31 08:53:42;;;;;;;6.55;3.22;;;19.80;68.60;;;;;;4733940;30;20418;-90
2023/08/31 08:56:09;;;;;;;7.05;3.10;;;19.90;69.30;;;;;;4745105;30;20082;-91
2023/08/31 08:58:36;;;;;;;6.38;3.38;;;19.90;69.20;;;;;;4748320;30;20048;-86
2023/08/31 09:01:07;;;;;;;8.80;3.43;;;20.00;68.70;;;;;;4758236;30;20048;-86
2023/08/31 09:03:35;;;;;;;8.20;3.53;;;20.10;69.20;;;;;;4743076;30;20090;-86
2023/08/31 09:06:03;;;;;;;6.45;3.45;;;20.20;68.50;;;;;;4752150;30;20078;-85
2023/08/31 09:08:30;;;;;;;7.30;3.70;;;20.20;68.60;;;;;;4747909;30;20137;-87
2023/08/31 09:10:58;;;;;;;6.82;3.35;;;20.10;68.20;;;;;;4744053;30;20051;-87
2023/08/31 09:13:29;;;;;;;6.70;3.27;;;20.10;69.20;;;;;;4724688;30;20067;-86
2023/08/31 09:15:57;;;;;;;8.85;3.60;;;20.00;69.20;;;;;;4727343;30;20515;-88
2023/08/31 09:18:27;;;;;;;7.57;3.95;;;19.90;69.00;;;;;;4707437;30;20595;-87
2023/08/31 09:20:58;;;;;;;6.70;3.83;;;19.90;67.30;;;;;;4728089;30;20110;-85
2023/08/31 09:23:26;;;;;;;8.43;3.33;;;20.00;68.40;;;;;;4732824;30;20080;-85
2023/08/31 09:25:55;;;;;;;7.43;3.80;;;20.10;69.10;;;;;;4715601;30;20091;-85
2023/08/31 09:28:26;;;;;;;7.13;3.55;;;20.20;67.80;;;;;;4709521;30;20404;-85
2023/08/31 09:31:08;;;;;;;8.13;3.45;;;20.30;66.70;;;;;;4721924;30;20052;-85
2023/08/31 09:33:36;;;;;;;6.05;3.55;;;20.60;66.80;;;;;;4710806;30;20055;-87
2023/08/31 09:36:07;;;;;;;6.38;3.50;;;20.70;67.50;;;;;;4722392;30;20044;-85
2023/08/31 09:38:44;;;;;;;5.53;2.97;;;20.70;67.10;;;;;;4730876;30;20419;-85
2023/08/31 09:41:12;;;;;;;6.22;3.63;;;20.70;67.20;;;;;;4721725;30;20056;-85
2023/08/31 09:43:39;;;;;;;9.27;4.30;;;20.80;67.90;;;;;;4712902;30;20049;-85
2023/08/31 09:46:06;;;;;;;6.75;3.88;;;21.00;67.00;;;;;;4715458;30;20048;-85
2023/08/31 09:48:37;;;;;;;7.43;3.97;;;21.10;66.90;;;;;;4736720;30;20052;-85
2023/08/31 09:51:05;;;;;;;7.73;3.60;;;21.10;66.50;;;;;;4737051;30;20056;-85
2023/08/31 09:53:35;;;;;;;6.70;3.58;;;21.10;64.10;;;;;;4731092;30;20551;-85
2023/08/31 09:56:05;;;;;;;8.35;3.80;;;21.10;64.20;;;;;;4705239;30;20085;-85
2023/08/31 09:58:33;;;;;;;6.55;3.63;;;21.10;64.30;;;;;;4719517;30;20221;-85
2023/08/31 10:01:00;;;;;;;8.13;4.20;;;21.10;62.40;;;;;;4711789;30;20064;-85
2023/08/31 10:03:30;;;;;;;6.93;4.30;;;21.20;63.60;;;;;;4725217;30;20087;-85
2023/08/31 10:05:58;;;;;;;6.60;4.63;;;21.30;62.30;;;;;;4735667;30;20052;-85
2023/08/31 10:08:31;;;;;;;8.15;4.35;;;21.40;64.20;;;;;;4708087;30;20135;-87
2023/08/31 10:11:03;;;;;;;6.25;2.92;;;21.50;64.00;;;;;;4736177;30;20049;-87
2023/08/31 10:13:36;;;;;;;7.15;3.20;;;21.50;60.90;;;;;;4734068;30;20483;-86
2023/08/31 10:16:05;;;;;;;7.17;2.70;;;21.50;61.70;;;;;;4736998;30;20107;-86
2023/08/31 10:18:35;;;;;;;6.05;3.55;;;21.30;60.40;;;;;;4736701;30;20052;-85
2023/08/31 10:21:03;;;;;;;6.97;3.40;;;21.30;62.50;;;;;;4736803;30;20056;-86
2023/08/31 10:23:31;;;;;;;6.07;2.88;;;21.40;61.50;;;;;;4736655;30;20523;-86
2023/08/31 10:25:59;;;;;;;5.28;2.47;;;21.50;61.60;;;;;;4722264;30;20052;-86
2023/08/31 10:28:30;;;;;;;5.27;2.87;;;21.50;61.30;;;;;;4736801;30;20534;-85
2023/08/31 10:31:01;;;;;;;5.70;2.83;;;21.50;60.40;;;;;;4743988;30;20060;-86
2023/08/31 10:33:40;;;;;;;7.68;3.10;;;21.60;61.00;;;;;;4739798;30;20063;-86
2023/08/31 10:36:17;;;;;;;7.40;2.90;;;21.60;61.80;;;;;;4754412;30;20051;-86
2023/08/31 10:39:08;;;;;;;5.53;3.50;;;21.80;61.40;;;;;;4754276;30;20058;-86
2023/08/31 10:41:35;;;;;;;6.87;3.30;;;22.00;59.80;;;;;;4731278;30;20083;-86
2023/08/31 10:44:26;;;;;;;5.68;2.75;;;22.00;61.90;;;;;;4754346;30;20070;-86
2023/08/31 10:46:54;;;;;;;5.38;3.25;;;22.10;61.30;;;;;;4754142;30;20147;-86
2023/08/31 10:49:22;;;;;;;5.50;2.92;;;22.10;58.20;;;;;;4739655;30;20059;-86
2023/08/31 10:52:19;;;;;;;5.15;2.90;;;22.10;59.20;;;;;;4754021;30;20511;-86
2023/08/31 10:54:55;;;;;;;5.10;2.63;;;22.00;60.40;;;;;;4754150;30;20056;-86
2023/08/31 10:57:30;;;;;;;5.25;2.88;;;21.80;58.90;;;;;;4738351;30;20507;-86
2023/08/31 10:59:58;;;;;;;4.40;2.65;;;21.60;60.90;;;;;;4736297;30;20049;-86
2023/08/31 11:02:41;;;;;;;5.43;2.95;;;21.50;60.30;;;;;;4744660;30;20055;-86
2023/08/31 11:05:14;;;;;;;5.10;2.60;;;21.60;60.50;;;;;;4757640;30;20079;-86
2023/08/31 11:07:43;;;;;;;4.97;2.70;;;21.60;59.70;;;;;;4757919;30;20078;-86
2023/08/31 11:10:19;;;;;;;4.85;2.60;;;21.50;56.50;;;;;;4757724;30;20055;-86
2023/08/31 11:12:52;;;;;;;4.80;2.70;;;21.40;58.10;;;;;;4757965;30;20098;-86
2023/08/31 11:15:21;;;;;;;6.88;2.63;;;21.40;59.10;;;;;;4743235;30;20063;-86
2023/08/31 11:17:50;;;;;;;5.13;2.67;;;21.40;59.50;;;;;;4742984;30;20482;-86
2023/08/31 11:20:19;;;;;;;5.07;2.63;;;21.50;59.80;;;;;;4757368;30;20051;-86
2023/08/31 11:22:54;;;;;;;5.50;2.50;;;21.50;58.20;;;;;;4725926;30;20045;-86
2023/08/31 11:25:23;;;;;;;4.75;2.70;;;21.70;58.30;;;;;;4739755;30;20048;-86
2023/08/31 11:27:55;;;;;;;4.22;2.58;;;22.00;58.40;;;;;;4739763;30;20091;-86
2023/08/31 11:30:24;;;;;;;5.47;2.45;;;22.00;56.30;;;;;;4739689;30;20121;-86
2023/08/31 11:32:53;;;;;;;5.53;2.70;;;22.10;57.10;;;;;;4742137;30;20060;-87
2023/08/31 11:35:22;;;;;;;5.00;2.38;;;22.20;56.10;;;;;;4750190;30;20528;-86
2023/08/31 11:37:55;;;;;;;5.90;2.65;;;22.30;56.00;;;;;;4732608;30;20047;-86
2023/08/31 11:40:22;;;;;;;5.57;2.78;;;22.50;55.00;;;;;;4751632;30;20135;-86
2023/08/31 11:42:52;;;;;;;5.85;2.72;;;22.60;56.30;;;;;;4753144;30;20044;-86
2023/08/31 11:45:20;;;;;;;5.57;2.70;;;22.60;56.10;;;;;;4749961;30;20411;-85
2023/08/31 11:47:49;;;;;;;5.72;2.42;;;22.60;52.70;;;;;;4744882;30;20456;-86
2023/08/31 11:50:17;;;;;;;5.10;2.72;;;22.60;54.00;;;;;;4728993;30;20149;-86
2023/08/31 11:52:44;;;;;;;7.18;3.58;;;22.70;55.10;;;;;;4735203;30;20056;-86
2023/08/31 11:55:15;;;;;;;6.20;3.40;;;22.90;57.10;;;;;;4743754;30;20412;-86
2023/08/31 11:57:52;;;;;;;5.87;3.30;;;23.00;54.60;;;;;;4754226;30;20113;-87
2023/08/31 12:00:20;;;;;;;6.82;3.30;;;23.00;52.50;;;;;;4741442;30;20453;-86
2023/08/31 12:03:04;;;;;;;6.53;3.00;;;22.80;54.60;;;;;;4739877;30;20403;-85
2023/08/31 12:05:48;;;;;;;5.00;2.75;;;22.80;54.60;;;;;;4743081;30;20060;-85
2023/08/31 12:08:18;;;;;;;4.82;2.97;;;23.00;55.40;;;;;;4730884;30;20416;-86
2023/08/31 12:10:46;;;;;;;5.57;2.70;;;23.10;56.20;;;;;;4734263;30;20146;-86
2023/08/31 12:13:13;;;;;;;7.13;3.50;;;23.10;54.10;;;;;;4732610;30;20192;-85
2023/08/31 12:15:41;;;;;;;7.85;3.00;;;23.20;53.30;;;;;;4731247;30;20542;-86
2023/08/31 12:18:12;;;;;;;7.07;3.40;;;23.30;53.60;;;;;;4743688;30;20062;-85
2023/08/31 12:20:43;;;;;;;6.40;3.05;;;23.40;54.60;;;;;;4740064;30;20082;-85
2023/08/31 12:23:10;;;;;;;4.63;2.60;;;23.50;51.70;;;;;;4738167;30;20102;-85
2023/08/31 12:25:38;;;;;;;6.10;3.00;;;23.30;49.40;;;;;;4726204;30;20398;-85
2023/08/31 12:28:05;;;;;;;5.03;2.72;;;23.10;51.40;;;;;;4731419;30;20048;-86
2023/08/31 12:30:32;;;;;;;6.50;3.08;;;22.90;51.50;;;;;;4740346;30;20052;-84
2023/08/31 12:32:59;;;;;;;9.48;3.75;;;22.80;52.30;;;;;;4745471;30;20465;-84
2023/08/31 12:35:26;;;;;;;6.07;2.57;;;22.70;54.80;;;;;;4743851;30;20048;-84
2023/08/31 12:37:53;;;;;;;6.63;3.13;;;22.60;54.50;;;;;;4763726;30;20059;-84
2023/08/31 12:40:21;;;;;;;6.43;3.08;;;22.50;54.40;;;;;;4729980;30;20052;-84
2023/08/31 12:42:48;;;;;;;7.60;3.65;;;22.20;54.70;;;;;;4746437;30;20050;-84
2023/08/31 12:45:16;;;;;;;7.50;3.70;;;21.80;58.60;;;;;;4752542;30;20076;-83
2023/08/31 12:47:43;;;;;;;4.43;2.50;;;21.00;64.00;;;;;;4745312;30;20411;-84
2023/08/31 12:50:12;;;;;;;8.77;2.90;;;19.70;68.80;;;;;;4746496;30;20164;-86
2023/08/31 12:52:44;;;;;;;6.65;2.65;;;19.10;70.90;;;;;;4732428;30;20048;-87
2023/08/31 12:55:12;;;;;;;7.10;2.85;;;18.60;72.60;;;;;;4735542;30;20047;-87
2023/08/31 12:57:39;;;;;;;7.38;2.78;;;18.30;73.70;;;;;;4732623;30;20059;-88
2023/08/31 13:00:09;;;;;;;5.67;2.43;;;18.10;75.70;;;;;;4732310;30;20075;-88
2023/08/31 13:02:36;;;;;;;6.50;2.70;;;18.10;76.30;;;;;;4727457;30;20601;-87
2023/08/31 13:05:05;;;;;;;7.18;2.63;;;18.00;76.10;;;;;;4744344;30;20070;-87
2023/08/31 13:07:32;;;;;;;6.00;2.50;;;17.90;76.20;;;;;;4746676;30;20051;-87
2023/08/31 13:10:03;;;;;;;6.90;2.58;;;17.90;77.90;;;;;;4747141;30;20561;-88
2023/08/31 13:12:32;;;;;;;5.83;2.20;;;18.00;76.80;;;;;;4732136;30;20095;-88
2023/08/31 13:14:59;;;;;;;6.35;2.22;;;17.90;76.50;;;;;;4742590;30;20530;-87
2023/08/31 13:17:27;;;;;;;4.82;1.92;;;17.80;77.40;;;;;;4748896;30;20396;-88